createdAt,value
2018-01-11T00:01:20.819Z,38.20
2018-01-11T00:03:48.483Z,38.00
2018-01-11T00:06:16.563Z,40.27
2018-01-11T00:08:44.251Z,37.80
2018-01-11T00:11:11.985Z,38.70
2018-01-11T00:13:39.593Z,40.13
2018-01-11T00:16:07.222Z,39.27
2018-01-11T00:18:34.867Z,39.47
2018-01-11T00:21:02.466Z,41.10
2018-01-11T00:23:30.095Z,39.23
2018-01-11T00:25:57.691Z,40.33
2018-01-11T00:28:25.351Z,42.07
2018-01-11T00:30:53.079Z,40.70
2018-01-11T00:33:20.784Z,41.57
2018-01-11T00:35:48.411Z,42.50
2018-01-11T00:38:16.061Z,40.40
2018-01-11T00:40:43.723Z,43.07
2018-01-11T00:43:11.383Z,43.50
2018-01-11T00:45:39.045Z,40.53
2018-01-11T00:48:06.708Z,44.00
2018-01-11T00:50:34.577Z,45.10
2018-01-11T00:53:02.180Z,42.33
2018-01-11T00:55:30.209Z,44.30
2018-01-11T00:57:57.902Z,44.17
2018-01-11T01:00:25.615Z,41.60
2018-01-11T01:02:53.285Z,43.23
2018-01-11T01:05:20.952Z,41.90
2018-01-11T01:07:48.718Z,42.60
2018-01-11T01:10:16.371Z,42.57
2018-01-11T01:12:44.043Z,44.13
2018-01-11T01:15:11.708Z,45.57
2018-01-11T01:17:39.364Z,43.90
2018-01-11T01:20:07.113Z,42.63
2018-01-11T01:22:35.013Z,42.50
2018-01-11T01:25:02.666Z,44.60
2018-01-11T01:27:30.332Z,44.70
2018-01-11T01:29:57.970Z,43.87
2018-01-11T01:32:25.643Z,42.37
2018-01-11T01:34:53.294Z,42.03
2018-01-11T01:37:20.909Z,42.33
2018-01-11T01:39:48.560Z,42.50
2018-01-11T01:42:16.189Z,40.67
2018-01-11T01:44:43.835Z,40.00
2018-01-11T01:47:11.442Z,41.50
2018-01-11T01:49:39.110Z,40.47
2018-01-11T01:52:06.820Z,42.13
2018-01-11T01:54:35.403Z,39.80
2018-01-11T01:57:03.071Z,40.30
2018-01-11T01:59:30.933Z,37.50
2018-01-11T02:01:58.545Z,38.53
2018-01-11T02:04:26.180Z,40.37
2018-01-11T02:06:53.814Z,38.97
2018-01-11T02:09:21.481Z,37.87
2018-01-11T02:11:49.607Z,37.00
2018-01-11T02:14:17.217Z,36.93
2018-01-11T02:16:44.882Z,38.57
2018-01-11T02:19:12.468Z,35.57
2018-01-11T02:21:40.162Z,38.07
2018-01-11T02:24:08.024Z,36.43
2018-01-11T02:26:35.654Z,38.30
2018-01-11T02:29:03.288Z,37.77
2018-01-11T02:31:30.910Z,37.70
2018-01-11T02:33:58.554Z,36.97
2018-01-11T02:36:26.160Z,37.73
2018-01-11T02:38:53.764Z,38.20
2018-01-11T02:41:21.413Z,39.80
2018-01-11T02:43:49.050Z,39.37
2018-01-11T02:46:16.714Z,39.77
2018-01-11T02:48:44.372Z,41.20
2018-01-11T02:51:11.964Z,41.67
2018-01-11T02:53:39.613Z,40.97
2018-01-11T02:56:07.249Z,40.83
2018-01-11T02:58:35.222Z,39.30
2018-01-11T03:01:02.917Z,40.33
2018-01-11T03:03:30.566Z,37.03
2018-01-11T03:05:58.244Z,36.77
2018-01-11T03:08:25.852Z,36.07
2018-01-11T03:10:53.495Z,38.20
2018-01-11T03:13:21.103Z,35.13
2018-01-11T03:15:48.746Z,37.30
2018-01-11T03:18:16.404Z,36.47
2018-01-11T03:20:44.005Z,36.50
2018-01-11T03:23:11.644Z,33.73
2018-01-11T03:25:39.380Z,34.13
2018-01-11T03:28:06.972Z,33.43
2018-01-11T03:30:34.621Z,34.73
2018-01-11T03:33:02.242Z,34.80
2018-01-11T03:35:30.256Z,36.20
2018-01-11T03:37:57.855Z,34.43
2018-01-11T03:40:25.457Z,30.17
2018-01-11T03:42:53.087Z,32.57
2018-01-11T03:45:20.692Z,33.37
2018-01-11T03:47:48.334Z,33.23
2018-01-11T03:50:15.929Z,34.03
2018-01-11T03:52:43.560Z,33.10
2018-01-11T03:55:11.258Z,33.20
2018-01-11T03:57:38.878Z,34.53
2018-01-11T04:00:06.516Z,32.60
2018-01-11T04:02:34.239Z,32.47
2018-01-11T04:05:01.858Z,33.00
2018-01-11T04:07:29.530Z,34.50
2018-01-11T04:09:57.499Z,31.60
2018-01-11T04:12:25.131Z,33.37
2018-01-11T04:14:52.741Z,34.50
2018-01-11T04:17:20.362Z,34.43
2018-01-11T04:19:48.014Z,34.77
2018-01-11T04:22:15.618Z,36.20
2018-01-11T04:24:43.625Z,33.37
2018-01-11T04:27:11.271Z,35.17
2018-01-11T04:29:39.487Z,35.30
2018-01-11T04:32:07.128Z,32.80
2018-01-11T04:34:35.204Z,32.57
2018-01-11T04:37:02.918Z,32.80
2018-01-11T04:39:30.546Z,33.63
2018-01-11T04:41:58.144Z,34.40
2018-01-11T04:44:25.796Z,32.17
2018-01-11T04:46:53.448Z,31.53
2018-01-11T04:49:21.090Z,33.53
2018-01-11T04:51:48.710Z,33.53
2018-01-11T04:54:16.611Z,37.13
2018-01-11T04:56:44.235Z,35.10
2018-01-11T04:59:11.877Z,38.40
2018-01-11T05:01:39.532Z,37.43
2018-01-11T05:04:07.297Z,39.23
2018-01-11T05:06:34.950Z,36.90
2018-01-11T05:09:02.586Z,36.00
2018-01-11T05:11:30.180Z,37.00
2018-01-11T05:13:57.831Z,38.87
2018-01-11T05:16:25.439Z,38.53
2018-01-11T05:18:53.300Z,36.33
2018-01-11T05:21:20.919Z,35.77
2018-01-11T05:23:48.552Z,34.57
2018-01-11T05:26:16.290Z,35.73
2018-01-11T05:28:44.191Z,33.80
2018-01-11T05:31:12.249Z,34.07
2018-01-11T05:33:39.955Z,34.47
2018-01-11T05:36:07.562Z,34.13
2018-01-11T05:38:35.200Z,34.03
2018-01-11T05:41:02.886Z,32.73
2018-01-11T05:43:30.590Z,35.40
2018-01-11T05:45:58.219Z,34.23
2018-01-11T05:48:25.827Z,35.10
2018-01-11T05:50:53.521Z,36.90
2018-01-11T05:53:21.116Z,35.90
2018-01-11T05:55:48.771Z,36.90
2018-01-11T05:58:16.397Z,37.23
2018-01-11T06:00:44.021Z,37.10
2018-01-11T06:03:11.697Z,38.17
2018-01-11T06:05:39.343Z,37.47
2018-01-11T06:08:07.000Z,38.23
2018-01-11T06:10:34.689Z,40.40
2018-01-11T06:13:02.546Z,35.90
2018-01-11T06:15:30.637Z,39.43
2018-01-11T06:17:58.256Z,37.97
2018-01-11T06:20:25.902Z,39.07
2018-01-11T06:22:53.503Z,39.97
2018-01-11T06:25:21.111Z,39.20
2018-01-11T06:27:48.723Z,39.60
2018-01-11T06:30:16.329Z,39.60
2018-01-11T06:32:43.967Z,39.20
2018-01-11T06:35:11.609Z,38.53
2018-01-11T06:37:39.196Z,38.53
2018-01-11T06:40:07.137Z,37.70
2018-01-11T06:42:34.816Z,39.20
2018-01-11T06:45:02.781Z,38.20
2018-01-11T06:47:30.392Z,36.50
2018-01-11T06:49:58.309Z,36.30
2018-01-11T06:52:25.951Z,36.17
2018-01-11T06:54:53.940Z,34.70
2018-01-11T06:57:21.612Z,35.67
2018-01-11T06:59:49.249Z,35.90
2018-01-11T07:02:16.887Z,35.77
2018-01-11T07:04:44.511Z,36.07
2018-01-11T07:07:12.124Z,36.83
2018-01-11T07:09:39.747Z,37.80
2018-01-11T07:12:07.346Z,36.70
2018-01-11T07:14:35.269Z,37.20
2018-01-11T07:17:02.884Z,36.37
2018-01-11T07:19:30.480Z,35.30
2018-01-11T07:21:58.121Z,36.60
2018-01-11T07:24:25.725Z,36.67
2018-01-11T07:26:53.321Z,35.23
2018-01-11T07:29:20.952Z,37.47
2018-01-11T07:31:48.889Z,36.73
2018-01-11T07:34:16.685Z,37.03
2018-01-11T07:36:44.331Z,34.67
2018-01-11T07:39:11.937Z,35.00
2018-01-11T07:41:39.550Z,37.03
2018-01-11T07:44:07.200Z,36.33
2018-01-11T07:46:34.823Z,35.00
2018-01-11T07:49:02.407Z,37.03
2018-01-11T07:51:30.040Z,37.57
2018-01-11T07:53:57.954Z,37.50
2018-01-11T07:56:25.608Z,39.67
2018-01-11T07:58:53.231Z,37.50
2018-01-11T08:01:20.831Z,37.30
2018-01-11T08:03:48.518Z,39.37
2018-01-11T08:06:16.269Z,37.70
2018-01-11T08:08:44.179Z,40.37
2018-01-11T08:11:11.789Z,38.00
2018-01-11T08:13:39.795Z,37.87
2018-01-11T08:16:07.746Z,38.47
2018-01-11T08:18:35.337Z,39.60
2018-01-11T08:21:03.071Z,39.70
2018-01-11T08:23:30.654Z,39.53
2018-01-11T08:25:58.253Z,39.70
2018-01-11T08:28:25.894Z,40.30
2018-01-11T08:30:53.820Z,40.80
2018-01-11T08:33:21.442Z,37.27
2018-01-11T08:35:49.155Z,44.27
2018-01-11T08:38:17.277Z,41.03
2018-01-11T08:40:44.973Z,39.33
2018-01-11T08:43:12.577Z,37.03
2018-01-11T08:45:40.218Z,37.13
2018-01-11T08:48:07.801Z,36.57
2018-01-11T08:50:35.460Z,37.80
2018-01-11T08:53:03.099Z,37.73
2018-01-11T08:55:30.681Z,37.63
2018-01-11T08:57:58.324Z,36.90
2018-01-11T09:00:25.910Z,38.33
2018-01-11T09:02:53.562Z,37.97
2018-01-11T09:05:21.177Z,36.67
2018-01-11T09:07:48.782Z,37.90
2018-01-11T09:10:16.443Z,36.50
2018-01-11T09:12:44.100Z,36.63
2018-01-11T09:15:22.498Z,35.20
2018-01-11T09:17:50.097Z,35.10
2018-01-11T09:20:17.714Z,35.90
2018-01-11T09:22:45.408Z,35.37
2018-01-11T09:25:13.046Z,35.40
2018-01-11T09:27:41.026Z,36.87
2018-01-11T09:30:08.640Z,37.80
2018-01-11T09:32:36.262Z,36.30
2018-01-11T09:35:03.886Z,36.37
2018-01-11T09:37:31.476Z,36.27
2018-01-11T09:39:59.116Z,35.77
2018-01-11T09:42:26.710Z,33.20
2018-01-11T09:44:54.308Z,34.17
2018-01-11T09:47:21.960Z,34.70
2018-01-11T09:49:49.576Z,34.00
2018-01-11T09:52:17.586Z,35.30
2018-01-11T09:54:45.220Z,35.87
2018-01-11T09:57:12.828Z,33.23
2018-01-11T09:59:40.474Z,34.43
2018-01-11T10:02:08.142Z,34.13
2018-01-11T10:04:35.784Z,35.63
2018-01-11T10:07:03.397Z,31.73
2018-01-11T10:09:31.000Z,33.13
2018-01-11T10:11:58.619Z,34.17
2018-01-11T10:14:26.526Z,33.90
2018-01-11T10:16:54.207Z,35.87
2018-01-11T10:19:24.367Z,37.07
2018-01-11T10:21:52.324Z,32.80
2018-01-11T10:24:20.141Z,34.70
2018-01-11T10:26:48.019Z,31.97
2018-01-11T10:29:15.647Z,35.43
2018-01-11T10:31:43.264Z,34.27
2018-01-11T10:34:13.056Z,34.33
2018-01-11T10:36:40.681Z,34.70
2018-01-11T10:39:08.295Z,34.37
2018-01-11T10:41:35.962Z,33.83
2018-01-11T10:44:03.633Z,33.10
2018-01-11T10:46:31.712Z,32.20
2018-01-11T10:48:59.332Z,33.93
2018-01-11T10:51:26.941Z,33.87
2018-01-11T10:53:54.926Z,33.43
2018-01-11T10:56:22.533Z,31.97
2018-01-11T10:58:50.159Z,35.60
2018-01-11T11:01:23.238Z,33.73
2018-01-11T11:03:50.856Z,30.63
2018-01-11T11:06:18.517Z,32.63
2018-01-11T11:08:46.120Z,33.50
2018-01-11T11:11:13.761Z,33.50
2018-01-11T11:13:41.352Z,34.67
2018-01-11T11:16:08.959Z,34.73
2018-01-11T11:18:36.569Z,33.13
2018-01-11T11:21:04.170Z,34.07
2018-01-11T11:23:35.879Z,34.53
2018-01-11T11:26:03.497Z,33.17
2018-01-11T11:28:31.367Z,34.97
2018-01-11T11:30:59.026Z,38.73
2018-01-11T11:33:26.649Z,38.50
2018-01-11T11:35:54.311Z,38.90
2018-01-11T11:38:21.900Z,41.97
2018-01-11T11:40:49.527Z,44.50
2018-01-11T11:43:17.152Z,46.77
2018-01-11T11:45:44.774Z,45.27
2018-01-11T11:48:12.428Z,47.43
2018-01-11T11:50:40.032Z,45.77
2018-01-11T11:53:07.672Z,44.43
2018-01-11T11:55:36.543Z,42.33
2018-01-11T11:58:04.170Z,44.57
2018-01-11T12:00:31.836Z,44.20
2018-01-11T12:02:59.677Z,42.23
2018-01-11T12:05:27.276Z,44.10
2018-01-11T12:07:54.912Z,44.97
2018-01-11T12:10:22.509Z,43.57
2018-01-11T12:12:50.138Z,43.17
2018-01-11T12:15:17.747Z,42.30
2018-01-11T12:17:45.340Z,42.67
2018-01-11T12:20:12.994Z,45.37
2018-01-11T12:22:40.612Z,45.97
2018-01-11T12:25:08.280Z,40.83
2018-01-11T12:27:35.937Z,36.37
2018-01-11T12:30:03.560Z,37.30
2018-01-11T12:32:31.607Z,36.50
2018-01-11T12:34:59.229Z,37.17
2018-01-11T12:37:26.987Z,35.93
2018-01-11T12:39:54.628Z,36.03
2018-01-11T12:42:22.223Z,36.40
2018-01-11T12:44:49.844Z,37.20
2018-01-11T12:47:17.475Z,37.27
2018-01-11T12:49:45.136Z,37.70
2018-01-11T12:52:13.144Z,37.33
2018-01-11T12:54:40.747Z,39.43
2018-01-11T12:57:08.466Z,37.40
2018-01-11T12:59:36.452Z,37.40
2018-01-11T13:02:04.419Z,37.23
2018-01-11T13:04:32.059Z,38.57
2018-01-11T13:06:59.699Z,38.33
2018-01-11T13:09:27.327Z,37.47
2018-01-11T13:11:54.911Z,35.80
2018-01-11T13:14:22.827Z,37.00
2018-01-11T13:16:50.435Z,36.30
2018-01-11T13:19:18.057Z,38.23
2018-01-11T13:21:45.716Z,35.73
2018-01-11T13:24:13.460Z,37.10
2018-01-11T13:26:41.162Z,35.40
2018-01-11T13:29:08.807Z,33.37
2018-01-11T13:31:36.438Z,34.43
2018-01-11T13:34:04.051Z,36.77
2018-01-11T13:36:31.636Z,36.60
2018-01-11T13:38:59.570Z,35.90
2018-01-11T13:41:27.183Z,35.83
2018-01-11T13:43:54.791Z,34.57
2018-01-11T13:46:22.424Z,36.70
2018-01-11T13:48:50.316Z,38.63
2018-01-11T13:51:17.961Z,33.90
2018-01-11T13:53:45.844Z,34.47
2018-01-11T13:56:13.477Z,34.70
2018-01-11T13:58:41.132Z,34.37
2018-01-11T14:01:08.739Z,36.37
2018-01-11T14:03:36.379Z,34.73
2018-01-11T14:06:04.024Z,36.60
2018-01-11T14:08:31.616Z,35.30
2018-01-11T14:10:59.240Z,35.77
2018-01-11T14:13:27.065Z,35.73
2018-01-11T14:15:54.767Z,36.40
2018-01-11T14:18:22.409Z,35.30
2018-01-11T14:20:50.046Z,36.30
2018-01-11T14:23:17.976Z,37.40
2018-01-11T14:25:46.024Z,37.57
2018-01-11T14:28:13.708Z,36.60
2018-01-11T14:30:42.316Z,36.20
2018-01-11T14:33:09.912Z,35.37
2018-01-11T14:35:37.531Z,36.50
2018-01-11T14:38:05.630Z,34.83
2018-01-11T14:40:33.228Z,38.57
2018-01-11T14:43:01.309Z,37.27
2018-01-11T14:45:28.904Z,37.07
2018-01-11T14:47:56.527Z,36.20
2018-01-11T14:50:24.183Z,35.23
2018-01-11T14:52:51.818Z,35.43
2018-01-11T14:55:19.472Z,35.90
2018-01-11T14:57:47.166Z,35.70
2018-01-11T15:00:14.767Z,34.87
2018-01-11T15:02:45.192Z,35.40
2018-01-11T15:05:12.808Z,36.30
2018-01-11T15:07:40.751Z,36.90
2018-01-11T15:10:09.007Z,37.00
2018-01-11T15:12:41.334Z,37.80
2018-01-11T15:15:09.835Z,39.47
2018-01-11T15:17:37.816Z,39.00
2018-01-11T15:20:05.718Z,37.70
2018-01-11T15:22:35.365Z,40.60
2018-01-11T15:25:03.062Z,41.87
2018-01-11T15:27:30.722Z,41.60
2018-01-11T15:29:58.566Z,42.17
2018-01-11T15:32:26.538Z,40.30
2018-01-11T15:34:54.594Z,39.90
2018-01-11T15:37:22.302Z,37.90
2018-01-11T15:39:49.919Z,37.20
2018-01-11T15:42:17.993Z,34.70
2018-01-11T15:44:46.133Z,34.93
2018-01-11T15:47:14.773Z,36.90
2018-01-11T15:49:42.804Z,36.50
2018-01-11T15:52:13.647Z,37.63
2018-01-11T15:54:43.344Z,40.83
2018-01-11T15:57:11.230Z,42.80
2018-01-11T15:59:38.914Z,43.20
2018-01-11T16:02:06.822Z,39.70
2018-01-11T16:04:34.780Z,40.70
2018-01-11T16:07:02.415Z,43.17
2018-01-11T16:09:30.019Z,42.80
2018-01-11T16:11:57.655Z,39.57
2018-01-11T16:14:25.256Z,38.80
2018-01-11T16:16:52.995Z,41.20
2018-01-11T16:19:20.580Z,41.10
2018-01-11T16:21:48.213Z,38.63
2018-01-11T16:24:16.315Z,41.47
2018-01-11T16:26:44.018Z,38.40
2018-01-11T16:29:11.710Z,37.30
2018-01-11T16:31:39.318Z,35.93
2018-01-11T16:34:07.153Z,37.33
2018-01-11T16:36:34.805Z,33.57
2018-01-11T16:39:02.515Z,34.83
2018-01-11T16:41:30.182Z,28.20
2018-01-11T16:43:57.794Z,29.80
2018-01-11T16:46:25.713Z,31.13
2018-01-11T16:48:53.341Z,32.00
2018-01-11T16:51:21.003Z,30.67
2018-01-11T16:53:48.667Z,32.80
2018-01-11T16:56:16.329Z,32.23
2018-01-11T16:58:44.347Z,33.60
2018-01-11T17:01:11.991Z,34.73
2018-01-11T17:03:39.696Z,35.07
2018-01-11T17:06:07.398Z,33.60
2018-01-11T17:08:35.054Z,32.07
2018-01-11T17:11:02.780Z,33.60
2018-01-11T17:13:30.843Z,31.60
2018-01-11T17:15:58.717Z,34.07
2018-01-11T17:18:26.628Z,33.10
2018-01-11T17:20:54.340Z,30.20
2018-01-11T17:23:21.941Z,30.57
2018-01-11T17:25:49.659Z,30.97
2018-01-11T17:28:17.249Z,30.03
2018-01-11T17:30:45.194Z,30.53
2018-01-11T17:33:12.830Z,34.53
2018-01-11T17:35:40.453Z,32.03
2018-01-11T17:38:08.126Z,30.60
2018-01-11T17:40:36.050Z,30.93
2018-01-11T17:43:04.013Z,31.27
2018-01-11T17:45:31.695Z,31.53
2018-01-11T17:47:59.375Z,32.20
2018-01-11T17:50:27.237Z,33.10
2018-01-11T17:52:55.088Z,31.00
2018-01-11T17:55:22.736Z,31.17
2018-01-11T17:57:50.329Z,31.93
2018-01-11T18:00:18.264Z,31.03
2018-01-11T18:02:46.008Z,32.23
2018-01-11T18:05:13.612Z,31.70
2018-01-11T18:07:41.803Z,32.70
2018-01-11T18:10:09.458Z,30.63
2018-01-11T18:12:37.070Z,33.43
2018-01-11T18:15:04.737Z,32.33
2018-01-11T18:17:32.404Z,30.33
2018-01-11T18:20:00.066Z,32.00
2018-01-11T18:22:27.689Z,32.43
2018-01-11T18:24:55.631Z,31.50
2018-01-11T18:27:23.255Z,31.30
2018-01-11T18:29:50.873Z,31.40
2018-01-11T18:32:18.501Z,31.00
2018-01-11T18:34:46.096Z,31.00
2018-01-11T18:37:13.744Z,34.13
2018-01-11T18:39:41.380Z,32.90
2018-01-11T18:42:09.001Z,31.17
2018-01-11T18:44:36.640Z,33.37
2018-01-11T18:47:04.333Z,33.93
2018-01-11T18:49:31.986Z,35.60
2018-01-11T18:51:59.624Z,34.90
2018-01-11T18:54:27.210Z,35.73
2018-01-11T18:56:54.871Z,35.40
2018-01-11T18:59:22.488Z,35.43
2018-01-11T19:01:50.369Z,38.67
2018-01-11T19:04:18.027Z,37.40
2018-01-11T19:06:45.684Z,35.53
2018-01-11T19:09:13.368Z,35.67
2018-01-11T19:11:41.072Z,38.73
2018-01-11T19:14:09.518Z,38.13
2018-01-11T19:16:37.185Z,37.50
2018-01-11T19:19:04.921Z,35.77
2018-01-11T19:21:32.578Z,35.80
2018-01-11T19:24:00.481Z,35.37
2018-01-11T19:26:28.229Z,36.03
2018-01-11T19:28:56.817Z,37.37
2018-01-11T19:31:24.815Z,35.63
2018-01-11T19:33:52.831Z,34.93
2018-01-11T19:36:20.575Z,36.40
2018-01-11T19:38:48.393Z,38.37
2018-01-11T19:41:16.016Z,36.67
2018-01-11T19:43:43.904Z,37.97
2018-01-11T19:46:11.876Z,39.60
2018-01-11T19:48:39.496Z,37.73
2018-01-11T19:51:07.132Z,39.17
2018-01-11T19:53:37.347Z,38.80
2018-01-11T19:56:05.201Z,38.77
2018-01-11T19:58:33.511Z,37.13
2018-01-11T20:01:01.839Z,39.80
2018-01-11T20:03:29.816Z,39.77
2018-01-11T20:06:01.911Z,38.80
2018-01-11T20:08:30.902Z,40.03
2018-01-11T20:10:59.539Z,40.50
2018-01-11T20:13:29.695Z,39.70
2018-01-11T20:15:57.324Z,40.37
2018-01-11T20:18:25.032Z,39.60
2018-01-11T20:20:53.106Z,39.37
2018-01-11T20:23:20.811Z,38.93
2018-01-11T20:25:48.585Z,39.50
2018-01-11T20:28:16.239Z,42.87
2018-01-11T20:30:43.933Z,41.30
2018-01-11T20:33:11.565Z,46.87
2018-01-11T20:35:39.353Z,52.60
2018-01-11T20:38:06.996Z,42.10
2018-01-11T20:40:35.023Z,40.33
2018-01-11T20:43:03.668Z,44.00
2018-01-11T20:45:31.311Z,44.30
2018-01-11T20:47:59.090Z,41.60
2018-01-11T20:50:26.780Z,42.63
2018-01-11T20:52:54.523Z,39.80
2018-01-11T20:55:22.257Z,39.90
2018-01-11T20:57:49.919Z,37.53
2018-01-11T21:00:17.633Z,41.77
2018-01-11T21:02:45.257Z,42.50
2018-01-11T21:05:12.944Z,41.43
2018-01-11T21:07:43.783Z,41.80
2018-01-11T21:10:11.716Z,39.67
2018-01-11T21:12:39.422Z,41.10
2018-01-11T21:15:07.200Z,41.70
2018-01-11T21:17:36.405Z,42.00
2018-01-11T21:20:04.813Z,40.37
2018-01-11T21:22:32.543Z,41.87
2018-01-11T21:25:00.463Z,39.57
2018-01-11T21:27:28.203Z,39.87
2018-01-11T21:29:55.885Z,41.17
2018-01-11T21:32:23.944Z,42.80
2018-01-11T21:34:52.145Z,43.83
2018-01-11T21:37:19.992Z,42.30
2018-01-11T21:39:48.256Z,43.10
2018-01-11T21:42:15.918Z,41.77
2018-01-11T21:44:43.727Z,46.90
2018-01-11T21:47:11.614Z,47.10
2018-01-11T21:49:39.313Z,44.90
2018-01-11T21:52:06.923Z,46.80
2018-01-11T21:54:34.653Z,45.17
2018-01-11T21:57:02.469Z,46.90
2018-01-11T21:59:30.192Z,44.57
2018-01-11T22:01:57.841Z,50.00
2018-01-11T22:04:25.489Z,46.73
2018-01-11T22:06:55.421Z,44.07
2018-01-11T22:09:24.068Z,44.90
2018-01-11T22:11:51.746Z,47.60
2018-01-11T22:14:19.434Z,47.17
2018-01-11T22:16:47.053Z,46.23
2018-01-11T22:19:15.178Z,46.33
2018-01-11T22:21:43.493Z,46.73
2018-01-11T22:24:11.109Z,45.87
2018-01-11T22:26:38.751Z,45.57
2018-01-11T22:29:06.385Z,45.80
2018-01-11T22:31:34.384Z,43.07
2018-01-11T22:34:02.300Z,47.20
2018-01-11T22:36:30.922Z,45.87
2018-01-11T22:38:58.704Z,41.30
2018-01-11T22:41:27.224Z,44.40
2018-01-11T22:43:56.031Z,44.27
2018-01-11T22:46:26.672Z,45.23
2018-01-11T22:48:56.010Z,46.70
2018-01-11T22:51:24.275Z,42.90
2018-01-11T22:53:52.080Z,45.23
2018-01-11T22:56:20.070Z,46.00
2018-01-11T22:58:47.945Z,44.60
2018-01-11T23:01:15.591Z,44.90
2018-01-11T23:03:43.300Z,46.33
2018-01-11T23:06:11.213Z,42.73
2018-01-11T23:08:39.029Z,46.23
2018-01-11T23:11:06.757Z,47.07
2018-01-11T23:13:34.396Z,43.90
2018-01-11T23:16:02.058Z,45.23
2018-01-11T23:18:29.797Z,45.87
2018-01-11T23:20:57.403Z,41.23
2018-01-11T23:23:25.102Z,45.97
2018-01-11T23:25:52.720Z,45.53
2018-01-11T23:28:20.367Z,45.90
2018-01-11T23:30:47.979Z,46.90
2018-01-11T23:33:15.628Z,45.60
2018-01-11T23:35:43.280Z,47.37
2018-01-11T23:38:11.068Z,46.30
2018-01-11T23:40:38.725Z,46.87
2018-01-11T23:43:06.522Z,45.50
2018-01-11T23:45:34.523Z,46.33
2018-01-11T23:48:02.809Z,49.27
2018-01-11T23:50:30.462Z,48.53
2018-01-11T23:52:58.486Z,45.10
2018-01-11T23:55:26.508Z,44.37
2018-01-11T23:57:54.116Z,48.20
